sensor_id;sensor_type;location;lat;lon;timestamp;P1;durP1;ratioP1;P2;durP2;ratioP2
9661;SDS011;24982;52.344;12.990;2022-11-20T00:00:41;13.60;;;10.37;;
9661;SDS011;24982;52.344;12.990;2022-11-20T00:03:44;12.77;;;10.57;;
9661;SDS011;24982;52.344;12.990;2022-11-20T00:06:47;12.23;;;10.47;;
9661;SDS011;24982;52.344;12.990;2022-11-20T00:09:49;14.13;;;10.90;;
9661;SDS011;24982;52.344;12.990;2022-11-20T00:12:51;12.20;;;10.47;;
9661;SDS011;24982;52.344;12.990;2022-11-20T00:15:56;15.07;;;11.03;;
9661;SDS011;24982;52.344;12.990;2022-11-20T00:19:00;15.63;;;10.57;;
9661;SDS011;24982;52.344;12.990;2022-11-20T00:22:03;15.33;;;11.27;;
9661;SDS011;24982;52.344;12.990;2022-11-20T00:25:05;12.67;;;10.33;;
9661;SDS011;24982;52.344;12.990;2022-11-20T00:28:07;15.67;;;11.57;;
9661;SDS011;24982;52.344;12.990;2022-11-20T00:31:09;13.67;;;10.63;;
9661;SDS011;24982;52.344;12.990;2022-11-20T00:34:16;14.87;;;10.83;;
9661;SDS011;24982;52.344;12.990;2022-11-20T00:37:18;13.93;;;11.47;;
9661;SDS011;24982;52.344;12.990;2022-11-20T00:40:19;13.73;;;10.70;;
9661;SDS011;24982;52.344;12.990;2022-11-20T00:43:21;13.83;;;10.70;;
9661;SDS011;24982;52.344;12.990;2022-11-20T00:46:24;13.90;;;10.90;;
9661;SDS011;24982;52.344;12.990;2022-11-20T00:49:28;15.67;;;10.70;;
9661;SDS011;24982;52.344;12.990;2022-11-20T00:52:30;13.60;;;11.30;;
9661;SDS011;24982;52.344;12.990;2022-11-20T00:55:32;13.77;;;11.03;;
9661;SDS011;24982;52.344;12.990;2022-11-20T00:58:35;16.70;;;11.47;;
9661;SDS011;24982;52.344;12.990;2022-11-20T01:01:38;14.57;;;10.80;;
9661;SDS011;24982;52.344;12.990;2022-11-20T01:04:41;14.87;;;10.87;;
9661;SDS011;24982;52.344;12.990;2022-11-20T01:07:43;13.00;;;10.53;;
9661;SDS011;24982;52.344;12.990;2022-11-20T01:10:45;14.10;;;10.67;;
9661;SDS011;24982;52.344;12.990;2022-11-20T01:13:48;14.70;;;11.90;;
9661;SDS011;24982;52.344;12.990;2022-11-20T01:16:51;16.53;;;11.30;;
9661;SDS011;24982;52.344;12.990;2022-11-20T01:19:54;15.13;;;10.70;;
9661;SDS011;24982;52.344;12.990;2022-11-20T01:22:56;15.97;;;11.67;;
9661;SDS011;24982;52.344;12.990;2022-11-20T01:25:59;14.97;;;11.67;;
9661;SDS011;24982;52.344;12.990;2022-11-20T01:29:02;14.50;;;11.63;;
9661;SDS011;24982;52.344;12.990;2022-11-20T01:32:05;14.83;;;10.87;;
9661;SDS011;24982;52.344;12.990;2022-11-20T01:35:09;16.03;;;12.03;;
9661;SDS011;24982;52.344;12.990;2022-11-20T01:38:10;15.03;;;11.53;;
9661;SDS011;24982;52.344;12.990;2022-11-20T01:41:13;14.27;;;10.97;;
9661;SDS011;24982;52.344;12.990;2022-11-20T01:44:50;14.00;;;11.43;;
9661;SDS011;24982;52.344;12.990;2022-11-20T01:47:53;14.73;;;11.27;;
9661;SDS011;24982;52.344;12.990;2022-11-20T01:50:56;14.27;;;10.77;;
9661;SDS011;24982;52.344;12.990;2022-11-20T01:53:59;17.13;;;11.67;;
9661;SDS011;24982;52.344;12.990;2022-11-20T01:57:06;15.00;;;11.37;;
9661;SDS011;24982;52.344;12.990;2022-11-20T02:00:12;15.73;;;11.27;;
9661;SDS011;24982;52.344;12.990;2022-11-20T02:03:17;13.97;;;11.37;;
9661;SDS011;24982;52.344;12.990;2022-11-20T02:06:24;16.60;;;12.30;;
9661;SDS011;24982;52.344;12.990;2022-11-20T02:09:29;16.07;;;12.13;;
9661;SDS011;24982;52.344;12.990;2022-11-20T02:12:32;18.63;;;12.80;;
9661;SDS011;24982;52.344;12.990;2022-11-20T02:15:51;16.10;;;12.40;;
9661;SDS011;24982;52.344;12.990;2022-11-20T02:18:54;16.40;;;12.20;;
9661;SDS011;24982;52.344;12.990;2022-11-20T02:22:02;16.77;;;12.27;;
9661;SDS011;24982;52.344;12.990;2022-11-20T02:25:13;18.43;;;12.33;;
9661;SDS011;24982;52.344;12.990;2022-11-20T02:28:16;17.00;;;12.27;;
9661;SDS011;24982;52.344;12.990;2022-11-20T02:31:18;17.70;;;12.47;;
9661;SDS011;24982;52.344;12.990;2022-11-20T02:34:20;18.87;;;12.83;;
9661;SDS011;24982;52.344;12.990;2022-11-20T02:37:22;18.37;;;13.00;;
9661;SDS011;24982;52.344;12.990;2022-11-20T02:40:29;18.77;;;13.03;;
9661;SDS011;24982;52.344;12.990;2022-11-20T02:43:31;18.83;;;13.40;;
9661;SDS011;24982;52.344;12.990;2022-11-20T02:46:33;18.13;;;13.20;;
9661;SDS011;24982;52.344;12.990;2022-11-20T02:49:35;15.83;;;12.80;;
9661;SDS011;24982;52.344;12.990;2022-11-20T02:52:37;19.87;;;13.57;;
9661;SDS011;24982;52.344;12.990;2022-11-20T02:55:40;19.50;;;13.17;;
9661;SDS011;24982;52.344;12.990;2022-11-20T02:58:42;19.07;;;13.73;;
9661;SDS011;24982;52.344;12.990;2022-11-20T03:01:44;19.83;;;13.23;;
9661;SDS011;24982;52.344;12.990;2022-11-20T03:04:46;18.47;;;13.70;;
9661;SDS011;24982;52.344;12.990;2022-11-20T03:07:48;16.63;;;13.77;;
9661;SDS011;24982;52.344;12.990;2022-11-20T03:10:52;17.73;;;13.43;;
9661;SDS011;24982;52.344;12.990;2022-11-20T03:13:53;16.90;;;13.30;;
9661;SDS011;24982;52.344;12.990;2022-11-20T03:16:56;18.17;;;13.73;;
9661;SDS011;24982;52.344;12.990;2022-11-20T03:19:58;18.07;;;13.57;;
9661;SDS011;24982;52.344;12.990;2022-11-20T03:23:00;17.70;;;12.73;;
9661;SDS011;24982;52.344;12.990;2022-11-20T03:26:10;17.63;;;13.77;;
9661;SDS011;24982;52.344;12.990;2022-11-20T03:29:15;19.90;;;14.10;;
9661;SDS011;24982;52.344;12.990;2022-11-20T03:32:17;17.97;;;13.10;;
9661;SDS011;24982;52.344;12.990;2022-11-20T03:35:19;17.60;;;13.63;;
9661;SDS011;24982;52.344;12.990;2022-11-20T03:38:21;17.70;;;13.20;;
9661;SDS011;24982;52.344;12.990;2022-11-20T03:41:25;18.50;;;13.70;;
9661;SDS011;24982;52.344;12.990;2022-11-20T03:44:28;22.53;;;14.73;;
9661;SDS011;24982;52.344;12.990;2022-11-20T03:47:30;18.70;;;13.33;;
9661;SDS011;24982;52.344;12.990;2022-11-20T03:50:32;18.43;;;13.47;;
9661;SDS011;24982;52.344;12.990;2022-11-20T03:53:34;17.53;;;12.97;;
9661;SDS011;24982;52.344;12.990;2022-11-20T03:56:38;19.90;;;13.37;;
9661;SDS011;24982;52.344;12.990;2022-11-20T03:59:40;17.70;;;12.80;;
9661;SDS011;24982;52.344;12.990;2022-11-20T04:02:42;19.13;;;13.33;;
9661;SDS011;24982;52.344;12.990;2022-11-20T04:05:44;17.67;;;13.23;;
9661;SDS011;24982;52.344;12.990;2022-11-20T04:08:46;19.60;;;13.73;;
9661;SDS011;24982;52.344;12.990;2022-11-20T04:11:49;20.20;;;13.97;;
9661;SDS011;24982;52.344;12.990;2022-11-20T04:14:51;19.23;;;13.90;;
9661;SDS011;24982;52.344;12.990;2022-11-20T04:17:53;19.90;;;13.90;;
9661;SDS011;24982;52.344;12.990;2022-11-20T04:20:56;17.57;;;13.73;;
9661;SDS011;24982;52.344;12.990;2022-11-20T04:23:58;18.17;;;13.50;;
9661;SDS011;24982;52.344;12.990;2022-11-20T04:27:01;17.87;;;13.47;;
9661;SDS011;24982;52.344;12.990;2022-11-20T04:30:03;18.83;;;13.10;;
9661;SDS011;24982;52.344;12.990;2022-11-20T04:33:06;18.57;;;13.67;;
9661;SDS011;24982;52.344;12.990;2022-11-20T04:36:10;17.10;;;13.10;;
9661;SDS011;24982;52.344;12.990;2022-11-20T04:39:13;17.77;;;13.30;;
9661;SDS011;24982;52.344;12.990;2022-11-20T04:42:18;17.37;;;12.63;;
9661;SDS011;24982;52.344;12.990;2022-11-20T04:45:32;18.33;;;13.33;;
9661;SDS011;24982;52.344;12.990;2022-11-20T04:48:34;18.30;;;13.30;;
9661;SDS011;24982;52.344;12.990;2022-11-20T04:51:36;17.60;;;12.73;;
9661;SDS011;24982;52.344;12.990;2022-11-20T04:54:38;17.37;;;12.77;;
9661;SDS011;24982;52.344;12.990;2022-11-20T04:57:41;17.63;;;13.13;;
9661;SDS011;24982;52.344;12.990;2022-11-20T05:00:43;18.07;;;13.37;;
9661;SDS011;24982;52.344;12.990;2022-11-20T05:03:45;17.77;;;13.37;;
9661;SDS011;24982;52.344;12.990;2022-11-20T05:06:49;18.77;;;13.67;;
9661;SDS011;24982;52.344;12.990;2022-11-20T05:09:51;19.23;;;13.80;;
9661;SDS011;24982;52.344;12.990;2022-11-20T05:12:55;21.07;;;14.83;;
9661;SDS011;24982;52.344;12.990;2022-11-20T05:16:00;19.60;;;13.87;;
9661;SDS011;24982;52.344;12.990;2022-11-20T05:19:03;19.20;;;14.00;;
9661;SDS011;24982;52.344;12.990;2022-11-20T05:22:05;19.53;;;13.67;;
9661;SDS011;24982;52.344;12.990;2022-11-20T05:25:07;19.40;;;13.90;;
9661;SDS011;24982;52.344;12.990;2022-11-20T05:28:10;19.47;;;14.67;;
9661;SDS011;24982;52.344;12.990;2022-11-20T05:31:13;18.90;;;14.27;;
9661;SDS011;24982;52.344;12.990;2022-11-20T05:34:17;19.77;;;13.63;;
9661;SDS011;24982;52.344;12.990;2022-11-20T05:37:18;18.80;;;14.27;;
9661;SDS011;24982;52.344;12.990;2022-11-20T05:40:20;18.23;;;14.10;;
9661;SDS011;24982;52.344;12.990;2022-11-20T05:43:24;19.80;;;14.13;;
9661;SDS011;24982;52.344;12.990;2022-11-20T05:46:26;17.43;;;14.00;;
9661;SDS011;24982;52.344;12.990;2022-11-20T05:49:28;20.10;;;14.70;;
9661;SDS011;24982;52.344;12.990;2022-11-20T05:52:30;18.80;;;14.33;;
9661;SDS011;24982;52.344;12.990;2022-11-20T05:55:32;17.70;;;13.27;;
9661;SDS011;24982;52.344;12.990;2022-11-20T05:58:36;21.33;;;14.53;;
9661;SDS011;24982;52.344;12.990;2022-11-20T06:01:38;19.23;;;14.30;;
9661;SDS011;24982;52.344;12.990;2022-11-20T06:04:40;19.10;;;14.60;;
9661;SDS011;24982;52.344;12.990;2022-11-20T06:07:42;21.97;;;14.27;;
9661;SDS011;24982;52.344;12.990;2022-11-20T06:10:44;20.47;;;14.87;;
9661;SDS011;24982;52.344;12.990;2022-11-20T06:13:48;19.70;;;14.33;;
9661;SDS011;24982;52.344;12.990;2022-11-20T06:16:50;19.77;;;14.63;;
9661;SDS011;24982;52.344;12.990;2022-11-20T06:19:52;20.63;;;14.00;;
9661;SDS011;24982;52.344;12.990;2022-11-20T06:22:54;20.03;;;13.40;;
9661;SDS011;24982;52.344;12.990;2022-11-20T06:25:55;19.33;;;13.90;;
9661;SDS011;24982;52.344;12.990;2022-11-20T06:28:59;18.17;;;13.70;;
9661;SDS011;24982;52.344;12.990;2022-11-20T06:32:01;19.80;;;14.37;;
9661;SDS011;24982;52.344;12.990;2022-11-20T06:35:03;17.17;;;13.43;;
9661;SDS011;24982;52.344;12.990;2022-11-20T06:38:05;22.33;;;15.77;;
9661;SDS011;24982;52.344;12.990;2022-11-20T06:41:08;23.77;;;15.70;;
9661;SDS011;24982;52.344;12.990;2022-11-20T06:44:14;20.97;;;14.60;;
9661;SDS011;24982;52.344;12.990;2022-11-20T06:47:16;20.43;;;14.80;;
9661;SDS011;24982;52.344;12.990;2022-11-20T06:50:18;22.97;;;16.53;;
9661;SDS011;24982;52.344;12.990;2022-11-20T06:53:20;19.87;;;13.97;;
9661;SDS011;24982;52.344;12.990;2022-11-20T06:56:23;18.60;;;13.63;;
9661;SDS011;24982;52.344;12.990;2022-11-20T06:59:26;19.13;;;14.27;;
9661;SDS011;24982;52.344;12.990;2022-11-20T07:02:28;19.73;;;14.30;;
9661;SDS011;24982;52.344;12.990;2022-11-20T07:05:30;20.40;;;14.83;;
9661;SDS011;24982;52.344;12.990;2022-11-20T07:08:32;20.07;;;14.33;;
9661;SDS011;24982;52.344;12.990;2022-11-20T07:11:34;22.63;;;15.07;;
9661;SDS011;24982;52.344;12.990;2022-11-20T07:14:37;23.13;;;15.00;;
9661;SDS011;24982;52.344;12.990;2022-11-20T07:17:39;18.83;;;13.63;;
9661;SDS011;24982;52.344;12.990;2022-11-20T07:20:41;20.77;;;15.13;;
9661;SDS011;24982;52.344;12.990;2022-11-20T07:23:43;21.13;;;14.33;;
9661;SDS011;24982;52.344;12.990;2022-11-20T07:26:45;21.77;;;15.00;;
9661;SDS011;24982;52.344;12.990;2022-11-20T07:29:50;17.90;;;13.47;;
9661;SDS011;24982;52.344;12.990;2022-11-20T07:32:52;18.53;;;13.67;;
9661;SDS011;24982;52.344;12.990;2022-11-20T07:35:55;19.63;;;13.83;;
9661;SDS011;24982;52.344;12.990;2022-11-20T07:38:59;18.67;;;13.57;;
9661;SDS011;24982;52.344;12.990;2022-11-20T07:42:01;19.40;;;14.00;;
9661;SDS011;24982;52.344;12.990;2022-11-20T07:45:05;19.30;;;14.17;;
9661;SDS011;24982;52.344;12.990;2022-11-20T07:48:07;18.90;;;13.77;;
9661;SDS011;24982;52.344;12.990;2022-11-20T07:51:09;18.57;;;13.33;;
9661;SDS011;24982;52.344;12.990;2022-11-20T07:54:12;20.20;;;14.80;;
9661;SDS011;24982;52.344;12.990;2022-11-20T07:57:14;18.70;;;13.77;;
9661;SDS011;24982;52.344;12.990;2022-11-20T08:00:17;20.33;;;13.90;;
9661;SDS011;24982;52.344;12.990;2022-11-20T08:03:19;19.50;;;14.23;;
9661;SDS011;24982;52.344;12.990;2022-11-20T08:06:21;18.00;;;12.90;;
9661;SDS011;24982;52.344;12.990;2022-11-20T08:09:24;17.47;;;13.10;;
9661;SDS011;24982;52.344;12.990;2022-11-20T08:12:26;21.53;;;13.77;;
9661;SDS011;24982;52.344;12.990;2022-11-20T08:15:48;19.77;;;13.23;;
9661;SDS011;24982;52.344;12.990;2022-11-20T08:18:51;21.47;;;14.07;;
9661;SDS011;24982;52.344;12.990;2022-11-20T08:21:54;18.60;;;13.53;;
9661;SDS011;24982;52.344;12.990;2022-11-20T08:24:56;17.43;;;12.87;;
9661;SDS011;24982;52.344;12.990;2022-11-20T08:27:58;18.53;;;13.87;;
9661;SDS011;24982;52.344;12.990;2022-11-20T08:31:03;18.87;;;13.50;;
9661;SDS011;24982;52.344;12.990;2022-11-20T08:34:05;20.60;;;13.47;;
9661;SDS011;24982;52.344;12.990;2022-11-20T08:37:07;22.13;;;13.47;;
9661;SDS011;24982;52.344;12.990;2022-11-20T08:40:09;20.30;;;13.13;;
9661;SDS011;24982;52.344;12.990;2022-11-20T08:43:12;18.70;;;12.40;;
9661;SDS011;24982;52.344;12.990;2022-11-20T08:46:16;17.13;;;13.27;;
9661;SDS011;24982;52.344;12.990;2022-11-20T08:49:18;20.53;;;14.23;;
9661;SDS011;24982;52.344;12.990;2022-11-20T08:52:21;18.37;;;13.00;;
9661;SDS011;24982;52.344;12.990;2022-11-20T08:55:23;17.23;;;12.73;;
9661;SDS011;24982;52.344;12.990;2022-11-20T08:58:25;18.77;;;12.60;;
9661;SDS011;24982;52.344;12.990;2022-11-20T09:01:29;18.20;;;11.70;;
9661;SDS011;24982;52.344;12.990;2022-11-20T09:04:31;16.20;;;11.17;;
9661;SDS011;24982;52.344;12.990;2022-11-20T09:07:32;15.23;;;11.13;;
9661;SDS011;24982;52.344;12.990;2022-11-20T09:10:34;14.50;;;11.80;;
9661;SDS011;24982;52.344;12.990;2022-11-20T09:13:39;16.00;;;11.13;;
9661;SDS011;24982;52.344;12.990;2022-11-20T09:16:44;15.87;;;11.63;;
9661;SDS011;24982;52.344;12.990;2022-11-20T09:19:46;16.87;;;12.00;;
9661;SDS011;24982;52.344;12.990;2022-11-20T09:22:48;14.10;;;10.93;;
9661;SDS011;24982;52.344;12.990;2022-11-20T09:25:50;16.57;;;11.20;;
9661;SDS011;24982;52.344;12.990;2022-11-20T09:28:52;18.30;;;10.97;;
9661;SDS011;24982;52.344;12.990;2022-11-20T09:31:56;14.67;;;10.50;;
9661;SDS011;24982;52.344;12.990;2022-11-20T09:34:57;16.37;;;10.67;;
9661;SDS011;24982;52.344;12.990;2022-11-20T09:38:04;15.67;;;10.63;;
9661;SDS011;24982;52.344;12.990;2022-11-20T09:41:06;14.37;;;10.33;;
9661;SDS011;24982;52.344;12.990;2022-11-20T09:44:22;15.30;;;11.50;;
9661;SDS011;24982;52.344;12.990;2022-11-20T09:47:36;15.80;;;11.23;;
9661;SDS011;24982;52.344;12.990;2022-11-20T09:50:49;16.07;;;11.97;;
9661;SDS011;24982;52.344;12.990;2022-11-20T09:54:05;15.63;;;11.27;;
9661;SDS011;24982;52.344;12.990;2022-11-20T09:57:18;15.90;;;11.97;;
9661;SDS011;24982;52.344;12.990;2022-11-20T10:00:22;15.67;;;10.83;;
9661;SDS011;24982;52.344;12.990;2022-11-20T10:03:26;13.73;;;10.27;;
9661;SDS011;24982;52.344;12.990;2022-11-20T10:06:39;14.60;;;10.97;;
9661;SDS011;24982;52.344;12.990;2022-11-20T10:09:49;13.20;;;10.90;;
9661;SDS011;24982;52.344;12.990;2022-11-20T10:12:57;14.57;;;10.48;;
9661;SDS011;24982;52.344;12.990;2022-11-20T10:16:16;15.03;;;11.03;;
9661;SDS011;24982;52.344;12.990;2022-11-20T10:19:32;13.87;;;10.30;;
9661;SDS011;24982;52.344;12.990;2022-11-20T10:22:49;14.93;;;10.33;;
9661;SDS011;24982;52.344;12.990;2022-11-20T10:26:02;12.40;;;9.50;;
9661;SDS011;24982;52.344;12.990;2022-11-20T10:29:13;12.87;;;9.97;;
9661;SDS011;24982;52.344;12.990;2022-11-20T10:32:18;14.40;;;10.23;;
9661;SDS011;24982;52.344;12.990;2022-11-20T10:35:25;12.97;;;10.27;;
9661;SDS011;24982;52.344;12.990;2022-11-20T10:38:30;12.33;;;9.77;;
9661;SDS011;24982;52.344;12.990;2022-11-20T10:41:38;12.43;;;9.87;;
9661;SDS011;24982;52.344;12.990;2022-11-20T10:44:42;11.83;;;8.97;;
9661;SDS011;24982;52.344;12.990;2022-11-20T10:48:07;12.15;;;9.57;;
9661;SDS011;24982;52.344;12.990;2022-11-20T10:51:21;12.70;;;9.53;;
9661;SDS011;24982;52.344;12.990;2022-11-20T10:54:32;11.90;;;9.47;;
9661;SDS011;24982;52.344;12.990;2022-11-20T10:57:47;13.07;;;9.48;;
9661;SDS011;24982;52.344;12.990;2022-11-20T11:01:02;13.25;;;9.63;;
9661;SDS011;24982;52.344;12.990;2022-11-20T11:04:07;13.27;;;8.85;;
9661;SDS011;24982;52.344;12.990;2022-11-20T11:07:24;10.88;;;8.55;;
9661;SDS011;24982;52.344;12.990;2022-11-20T11:10:32;10.50;;;8.05;;
9661;SDS011;24982;52.344;12.990;2022-11-20T11:13:43;11.27;;;8.18;;
9661;SDS011;24982;52.344;12.990;2022-11-20T11:16:48;10.87;;;8.57;;
9661;SDS011;24982;52.344;12.990;2022-11-20T11:20:05;10.67;;;8.40;;
9661;SDS011;24982;52.344;12.990;2022-11-20T11:23:26;9.83;;;8.03;;
9661;SDS011;24982;52.344;12.990;2022-11-20T11:26:33;9.57;;;7.53;;
9661;SDS011;24982;52.344;12.990;2022-11-20T11:29:35;11.03;;;8.30;;
9661;SDS011;24982;52.344;12.990;2022-11-20T11:32:37;10.47;;;7.90;;
9661;SDS011;24982;52.344;12.990;2022-11-20T11:35:44;8.23;;;7.25;;
9661;SDS011;24982;52.344;12.990;2022-11-20T11:38:50;9.70;;;7.85;;
9661;SDS011;24982;52.344;12.990;2022-11-20T11:41:54;12.25;;;8.57;;
9661;SDS011;24982;52.344;12.990;2022-11-20T11:44:57;9.77;;;7.32;;
9661;SDS011;24982;52.344;12.990;2022-11-20T11:48:07;10.43;;;7.68;;
9661;SDS011;24982;52.344;12.990;2022-11-20T11:51:10;8.93;;;6.38;;
9661;SDS011;24982;52.344;12.990;2022-11-20T11:54:17;8.13;;;6.32;;
9661;SDS011;24982;52.344;12.990;2022-11-20T11:57:26;9.75;;;7.38;;
9661;SDS011;24982;52.344;12.990;2022-11-20T12:00:35;10.77;;;7.70;;
9661;SDS011;24982;52.344;12.990;2022-11-20T12:03:40;10.10;;;7.47;;
9661;SDS011;24982;52.344;12.990;2022-11-20T12:06:48;10.35;;;7.70;;
9661;SDS011;24982;52.344;12.990;2022-11-20T12:09:56;12.05;;;8.80;;
9661;SDS011;24982;52.344;12.990;2022-11-20T12:13:00;10.73;;;8.30;;
9661;SDS011;24982;52.344;12.990;2022-11-20T12:16:13;15.27;;;9.48;;
9661;SDS011;24982;52.344;12.990;2022-11-20T12:19:16;15.85;;;10.57;;
9661;SDS011;24982;52.344;12.990;2022-11-20T12:22:21;14.35;;;10.07;;
9661;SDS011;24982;52.344;12.990;2022-11-20T12:25:31;17.30;;;10.43;;
9661;SDS011;24982;52.344;12.990;2022-11-20T12:28:39;13.20;;;9.43;;
9661;SDS011;24982;52.344;12.990;2022-11-20T12:31:58;14.52;;;9.80;;
9661;SDS011;24982;52.344;12.990;2022-11-20T12:35:17;13.38;;;10.02;;
9661;SDS011;24982;52.344;12.990;2022-11-20T12:38:52;13.53;;;10.27;;
9661;SDS011;24982;52.344;12.990;2022-11-20T12:49:28;18.73;;;9.90;;
9661;SDS011;24982;52.344;12.990;2022-11-20T12:52:41;16.00;;;10.53;;
9661;SDS011;24982;52.344;12.990;2022-11-20T12:55:54;16.60;;;10.90;;
9661;SDS011;24982;52.344;12.990;2022-11-20T12:59:06;23.83;;;11.67;;
9661;SDS011;24982;52.344;12.990;2022-11-20T13:02:25;24.05;;;11.85;;
9661;SDS011;24982;52.344;12.990;2022-11-20T13:05:34;20.92;;;11.73;;
9661;SDS011;24982;52.344;12.990;2022-11-20T13:08:41;19.33;;;12.43;;
9661;SDS011;24982;52.344;12.990;2022-11-20T13:11:44;19.50;;;12.73;;
9661;SDS011;24982;52.344;12.990;2022-11-20T13:14:53;19.80;;;12.10;;
9661;SDS011;24982;52.344;12.990;2022-11-20T13:18:02;17.93;;;10.70;;
9661;SDS011;24982;52.344;12.990;2022-11-20T13:21:13;19.47;;;11.77;;
9661;SDS011;24982;52.344;12.990;2022-11-20T13:27:35;17.20;;;11.53;;
9661;SDS011;24982;52.344;12.990;2022-11-20T13:30:50;15.10;;;10.30;;
9661;SDS011;24982;52.344;12.990;2022-11-20T13:33:53;17.57;;;11.90;;
9661;SDS011;24982;52.344;12.990;2022-11-20T13:36:57;14.17;;;11.13;;
9661;SDS011;24982;52.344;12.990;2022-11-20T13:40:19;17.90;;;12.20;;
9661;SDS011;24982;52.344;12.990;2022-11-20T13:43:26;15.33;;;11.17;;
9661;SDS011;24982;52.344;12.990;2022-11-20T13:46:39;18.03;;;11.30;;
9661;SDS011;24982;52.344;12.990;2022-11-20T13:49:43;14.93;;;11.27;;
9661;SDS011;24982;52.344;12.990;2022-11-20T13:52:47;17.02;;;12.13;;
9661;SDS011;24982;52.344;12.990;2022-11-20T13:55:59;14.27;;;11.17;;
9661;SDS011;24982;52.344;12.990;2022-11-20T13:59:07;16.00;;;11.15;;
9661;SDS011;24982;52.344;12.990;2022-11-20T14:02:22;18.70;;;11.20;;
9661;SDS011;24982;52.344;12.990;2022-11-20T14:05:26;15.10;;;10.77;;
9661;SDS011;24982;52.344;12.990;2022-11-20T14:08:31;17.98;;;11.13;;
9661;SDS011;24982;52.344;12.990;2022-11-20T14:11:45;16.25;;;10.90;;
9661;SDS011;24982;52.344;12.990;2022-11-20T14:14:49;16.23;;;11.50;;
9661;SDS011;24982;52.344;12.990;2022-11-20T14:17:54;16.30;;;11.00;;
9661;SDS011;24982;52.344;12.990;2022-11-20T14:20:59;13.55;;;10.60;;
9661;SDS011;24982;52.344;12.990;2022-11-20T14:24:04;16.90;;;10.70;;
9661;SDS011;24982;52.344;12.990;2022-11-20T14:27:11;19.00;;;11.30;;
9661;SDS011;24982;52.344;12.990;2022-11-20T14:30:15;14.30;;;11.23;;
9661;SDS011;24982;52.344;12.990;2022-11-20T14:33:20;17.47;;;11.87;;
9661;SDS011;24982;52.344;12.990;2022-11-20T14:36:24;13.30;;;11.20;;
9661;SDS011;24982;52.344;12.990;2022-11-20T14:39:29;14.60;;;11.10;;
9661;SDS011;24982;52.344;12.990;2022-11-20T14:42:33;18.97;;;11.77;;
9661;SDS011;24982;52.344;12.990;2022-11-20T14:45:37;15.50;;;10.80;;
9661;SDS011;24982;52.344;12.990;2022-11-20T14:48:42;13.93;;;10.87;;
9661;SDS011;24982;52.344;12.990;2022-11-20T14:51:46;14.17;;;10.90;;
9661;SDS011;24982;52.344;12.990;2022-11-20T14:54:59;16.10;;;11.60;;
9661;SDS011;24982;52.344;12.990;2022-11-20T14:58:01;16.87;;;11.70;;
9661;SDS011;24982;52.344;12.990;2022-11-20T15:01:05;16.20;;;11.13;;
9661;SDS011;24982;52.344;12.990;2022-11-20T15:04:10;17.97;;;11.97;;
9661;SDS011;24982;52.344;12.990;2022-11-20T15:07:22;13.47;;;10.83;;
9661;SDS011;24982;52.344;12.990;2022-11-20T15:10:26;15.97;;;11.30;;
9661;SDS011;24982;52.344;12.990;2022-11-20T15:13:29;16.70;;;11.50;;
9661;SDS011;24982;52.344;12.990;2022-11-20T15:16:33;14.30;;;10.67;;
9661;SDS011;24982;52.344;12.990;2022-11-20T15:19:36;15.97;;;10.60;;
9661;SDS011;24982;52.344;12.990;2022-11-20T15:22:38;15.83;;;12.87;;
9661;SDS011;24982;52.344;12.990;2022-11-20T15:25:41;16.90;;;11.60;;
9661;SDS011;24982;52.344;12.990;2022-11-20T15:28:44;16.50;;;11.40;;
9661;SDS011;24982;52.344;12.990;2022-11-20T15:31:47;14.17;;;10.33;;
9661;SDS011;24982;52.344;12.990;2022-11-20T15:34:52;11.50;;;10.20;;
9661;SDS011;24982;52.344;12.990;2022-11-20T15:37:54;13.20;;;10.73;;
9661;SDS011;24982;52.344;12.990;2022-11-20T15:40:56;13.20;;;10.70;;
9661;SDS011;24982;52.344;12.990;2022-11-20T15:43:58;13.87;;;11.23;;
9661;SDS011;24982;52.344;12.990;2022-11-20T15:47:00;16.83;;;11.70;;
9661;SDS011;24982;52.344;12.990;2022-11-20T15:50:05;13.90;;;11.00;;
9661;SDS011;24982;52.344;12.990;2022-11-20T15:53:15;18.07;;;11.30;;
9661;SDS011;24982;52.344;12.990;2022-11-20T15:56:17;12.80;;;9.57;;
9661;SDS011;24982;52.344;12.990;2022-11-20T15:59:19;13.20;;;9.80;;
9661;SDS011;24982;52.344;12.990;2022-11-20T16:02:21;14.00;;;10.00;;
9661;SDS011;24982;52.344;12.990;2022-11-20T16:05:26;14.70;;;10.57;;
9661;SDS011;24982;52.344;12.990;2022-11-20T16:08:29;15.00;;;10.00;;
9661;SDS011;24982;52.344;12.990;2022-11-20T16:11:31;12.97;;;9.60;;
9661;SDS011;24982;52.344;12.990;2022-11-20T16:14:33;13.77;;;9.43;;
9661;SDS011;24982;52.344;12.990;2022-11-20T16:17:52;12.80;;;9.40;;
9661;SDS011;24982;52.344;12.990;2022-11-20T16:20:56;13.90;;;10.73;;
9661;SDS011;24982;52.344;12.990;2022-11-20T16:23:58;11.70;;;8.83;;
9661;SDS011;24982;52.344;12.990;2022-11-20T16:27:01;12.10;;;9.03;;
9661;SDS011;24982;52.344;12.990;2022-11-20T16:30:03;10.63;;;8.20;;
9661;SDS011;24982;52.344;12.990;2022-11-20T16:33:08;12.40;;;9.13;;
9661;SDS011;24982;52.344;12.990;2022-11-20T16:36:14;13.93;;;10.43;;
9661;SDS011;24982;52.344;12.990;2022-11-20T16:39:16;14.87;;;10.27;;
9661;SDS011;24982;52.344;12.990;2022-11-20T16:42:18;14.63;;;10.43;;
9661;SDS011;24982;52.344;12.990;2022-11-20T16:45:20;15.60;;;12.37;;
9661;SDS011;24982;52.344;12.990;2022-11-20T16:48:22;15.90;;;12.47;;
9661;SDS011;24982;52.344;12.990;2022-11-20T16:51:26;17.73;;;12.67;;
9661;SDS011;24982;52.344;12.990;2022-11-20T16:54:29;17.57;;;10.00;;
9661;SDS011;24982;52.344;12.990;2022-11-20T16:57:31;12.90;;;9.87;;
9661;SDS011;24982;52.344;12.990;2022-11-20T17:00:35;9.83;;;8.83;;
9661;SDS011;24982;52.344;12.990;2022-11-20T17:03:38;16.10;;;12.37;;
9661;SDS011;24982;52.344;12.990;2022-11-20T17:06:42;17.20;;;12.07;;
9661;SDS011;24982;52.344;12.990;2022-11-20T17:09:45;18.67;;;11.47;;
9661;SDS011;24982;52.344;12.990;2022-11-20T17:12:48;16.63;;;12.30;;
9661;SDS011;24982;52.344;12.990;2022-11-20T17:15:50;16.83;;;12.23;;
9661;SDS011;24982;52.344;12.990;2022-11-20T17:18:53;15.47;;;11.83;;
9661;SDS011;24982;52.344;12.990;2022-11-20T17:21:57;21.57;;;16.00;;
9661;SDS011;24982;52.344;12.990;2022-11-20T17:24:59;27.40;;;21.60;;
9661;SDS011;24982;52.344;12.990;2022-11-20T17:28:01;19.97;;;15.87;;
9661;SDS011;24982;52.344;12.990;2022-11-20T17:31:03;15.37;;;12.10;;
9661;SDS011;24982;52.344;12.990;2022-11-20T17:34:08;15.00;;;11.83;;
9661;SDS011;24982;52.344;12.990;2022-11-20T17:37:13;16.80;;;13.17;;
9661;SDS011;24982;52.344;12.990;2022-11-20T17:40:15;17.97;;;13.30;;
9661;SDS011;24982;52.344;12.990;2022-11-20T17:43:17;18.40;;;13.43;;
9661;SDS011;24982;52.344;12.990;2022-11-20T17:46:20;15.80;;;11.90;;
9661;SDS011;24982;52.344;12.990;2022-11-20T17:49:23;16.47;;;12.67;;
9661;SDS011;24982;52.344;12.990;2022-11-20T17:52:26;16.30;;;11.80;;
9661;SDS011;24982;52.344;12.990;2022-11-20T17:55:28;15.80;;;11.20;;
9661;SDS011;24982;52.344;12.990;2022-11-20T17:58:50;16.53;;;11.87;;
9661;SDS011;24982;52.344;12.990;2022-11-20T18:01:52;15.27;;;12.03;;
9661;SDS011;24982;52.344;12.990;2022-11-20T18:04:54;13.83;;;11.37;;
9661;SDS011;24982;52.344;12.990;2022-11-20T18:07:57;14.53;;;11.33;;
9661;SDS011;24982;52.344;12.990;2022-11-20T18:10:59;16.80;;;11.23;;
9661;SDS011;24982;52.344;12.990;2022-11-20T18:14:02;14.47;;;10.67;;